sensor_id;sensor_type;location;lat;lon;timestamp;temperature;humidity
17632;DHT22;8934;51.194;17.150;2022-10-16T00:02:12;10.90;99.90
17632;DHT22;8934;51.194;17.150;2022-10-16T00:05:00;10.90;99.90
17632;DHT22;8934;51.194;17.150;2022-10-16T00:07:47;10.80;99.90
17632;DHT22;8934;51.194;17.150;2022-10-16T00:10:36;10.80;99.90
17632;DHT22;8934;51.194;17.150;2022-10-16T00:13:24;10.90;99.90
17632;DHT22;8934;51.194;17.150;2022-10-16T00:16:12;11.00;99.90
17632;DHT22;8934;51.194;17.150;2022-10-16T00:19:00;11.00;99.90
17632;DHT22;8934;51.194;17.150;2022-10-16T00:21:47;11.10;99.90
17632;DHT22;8934;51.194;17.150;2022-10-16T00:24:53;11.10;99.90
17632;DHT22;8934;51.194;17.150;2022-10-16T00:27:42;11.20;99.90
17632;DHT22;8934;51.194;17.150;2022-10-16T00:30:29;11.20;99.90
17632;DHT22;8934;51.194;17.150;2022-10-16T00:33:17;11.20;99.90
17632;DHT22;8934;51.194;17.150;2022-10-16T00:36:05;11.10;99.90
17632;DHT22;8934;51.194;17.150;2022-10-16T00:38:54;11.10;99.90
17632;DHT22;8934;51.194;17.150;2022-10-16T00:41:42;11.00;99.90
17632;DHT22;8934;51.194;17.150;2022-10-16T00:44:48;11.00;99.90
17632;DHT22;8934;51.194;17.150;2022-10-16T00:47:37;10.90;99.90
17632;DHT22;8934;51.194;17.150;2022-10-16T00:50:27;10.90;99.90
17632;DHT22;8934;51.194;17.150;2022-10-16T00:53:15;10.90;99.90
17632;DHT22;8934;51.194;17.150;2022-10-16T00:56:03;11.00;99.90
17632;DHT22;8934;51.194;17.150;2022-10-16T00:58:51;11.00;99.90
17632;DHT22;8934;51.194;17.150;2022-10-16T01:01:40;11.10;99.90
17632;DHT22;8934;51.194;17.150;2022-10-16T01:04:28;11.10;99.90
17632;DHT22;8934;51.194;17.150;2022-10-16T01:07:20;11.20;99.90
17632;DHT22;8934;51.194;17.150;2022-10-16T01:10:15;11.30;99.90
17632;DHT22;8934;51.194;17.150;2022-10-16T01:13:05;11.30;99.90
17632;DHT22;8934;51.194;17.150;2022-10-16T01:15:54;11.40;99.90
17632;DHT22;8934;51.194;17.150;2022-10-16T01:18:45;11.50;99.90
17632;DHT22;8934;51.194;17.150;2022-10-16T01:21:35;11.50;99.90
17632;DHT22;8934;51.194;17.150;2022-10-16T01:24:27;11.60;99.90
17632;DHT22;8934;51.194;17.150;2022-10-16T01:27:20;11.70;99.90
17632;DHT22;8934;51.194;17.150;2022-10-16T01:30:10;11.80;99.90
17632;DHT22;8934;51.194;17.150;2022-10-16T01:33:00;11.80;99.90
17632;DHT22;8934;51.194;17.150;2022-10-16T01:35:52;11.90;99.90
17632;DHT22;8934;51.194;17.150;2022-10-16T01:38:40;11.90;99.90
17632;DHT22;8934;51.194;17.150;2022-10-16T01:41:30;11.90;99.90
17632;DHT22;8934;51.194;17.150;2022-10-16T01:44:21;11.90;99.90
17632;DHT22;8934;51.194;17.150;2022-10-16T01:47:09;11.80;99.90
17632;DHT22;8934;51.194;17.150;2022-10-16T01:49:58;11.80;99.90
17632;DHT22;8934;51.194;17.150;2022-10-16T01:52:47;11.80;99.90
17632;DHT22;8934;51.194;17.150;2022-10-16T01:55:36;11.80;99.90
17632;DHT22;8934;51.194;17.150;2022-10-16T01:58:25;11.80;99.90
17632;DHT22;8934;51.194;17.150;2022-10-16T02:01:19;11.80;99.90
17632;DHT22;8934;51.194;17.150;2022-10-16T02:04:09;11.80;99.90
17632;DHT22;8934;51.194;17.150;2022-10-16T02:06:57;11.80;99.90
17632;DHT22;8934;51.194;17.150;2022-10-16T02:09:45;11.80;99.90
17632;DHT22;8934;51.194;17.150;2022-10-16T02:12:35;11.80;99.90
17632;DHT22;8934;51.194;17.150;2022-10-16T02:15:25;11.80;99.90
17632;DHT22;8934;51.194;17.150;2022-10-16T02:18:15;11.80;99.90
17632;DHT22;8934;51.194;17.150;2022-10-16T02:21:08;11.90;99.90
17632;DHT22;8934;51.194;17.150;2022-10-16T02:24:03;11.90;99.90
17632;DHT22;8934;51.194;17.150;2022-10-16T02:27:00;11.90;99.90
17632;DHT22;8934;51.194;17.150;2022-10-16T02:29:55;11.90;99.90
17632;DHT22;8934;51.194;17.150;2022-10-16T02:32:48;11.90;99.90
17632;DHT22;8934;51.194;17.150;2022-10-16T02:35:38;11.90;99.90
17632;DHT22;8934;51.194;17.150;2022-10-16T02:38:26;11.90;99.90
17632;DHT22;8934;51.194;17.150;2022-10-16T02:41:15;11.90;99.90
17632;DHT22;8934;51.194;17.150;2022-10-16T02:44:03;11.90;99.90
17632;DHT22;8934;51.194;17.150;2022-10-16T02:46:51;11.90;99.90
17632;DHT22;8934;51.194;17.150;2022-10-16T02:49:39;11.90;99.90
17632;DHT22;8934;51.194;17.150;2022-10-16T02:52:28;11.90;99.90
17632;DHT22;8934;51.194;17.150;2022-10-16T02:55:16;11.90;99.90
17632;DHT22;8934;51.194;17.150;2022-10-16T02:58:03;11.90;99.90
17632;DHT22;8934;51.194;17.150;2022-10-16T03:00:51;11.80;99.90
17632;DHT22;8934;51.194;17.150;2022-10-16T03:03:39;11.80;99.90
17632;DHT22;8934;51.194;17.150;2022-10-16T03:06:27;11.70;99.90
17632;DHT22;8934;51.194;17.150;2022-10-16T03:09:17;11.70;99.90
17632;DHT22;8934;51.194;17.150;2022-10-16T03:12:05;11.70;99.90
17632;DHT22;8934;51.194;17.150;2022-10-16T03:14:52;11.70;99.90
17632;DHT22;8934;51.194;17.150;2022-10-16T03:17:40;11.70;99.90
17632;DHT22;8934;51.194;17.150;2022-10-16T03:20:29;11.70;99.90
17632;DHT22;8934;51.194;17.150;2022-10-16T03:23:17;11.70;99.90
17632;DHT22;8934;51.194;17.150;2022-10-16T03:26:06;11.80;99.90
17632;DHT22;8934;51.194;17.150;2022-10-16T03:28:54;11.80;99.90
17632;DHT22;8934;51.194;17.150;2022-10-16T03:31:41;11.80;99.90
17632;DHT22;8934;51.194;17.150;2022-10-16T03:34:30;11.90;99.90
17632;DHT22;8934;51.194;17.150;2022-10-16T03:37:18;11.90;99.90
17632;DHT22;8934;51.194;17.150;2022-10-16T03:40:07;11.90;99.90
17632;DHT22;8934;51.194;17.150;2022-10-16T03:42:56;11.90;99.90
17632;DHT22;8934;51.194;17.150;2022-10-16T03:45:44;11.90;99.90
17632;DHT22;8934;51.194;17.150;2022-10-16T03:48:31;12.00;99.90
17632;DHT22;8934;51.194;17.150;2022-10-16T03:51:19;12.00;99.90
17632;DHT22;8934;51.194;17.150;2022-10-16T03:54:07;12.10;99.90
17632;DHT22;8934;51.194;17.150;2022-10-16T03:56:54;12.10;99.90
17632;DHT22;8934;51.194;17.150;2022-10-16T03:59:43;12.10;99.90
17632;DHT22;8934;51.194;17.150;2022-10-16T04:02:31;12.20;99.90
17632;DHT22;8934;51.194;17.150;2022-10-16T04:05:19;12.20;99.90
17632;DHT22;8934;51.194;17.150;2022-10-16T04:08:07;12.20;99.90
17632;DHT22;8934;51.194;17.150;2022-10-16T04:10:55;12.20;99.90
17632;DHT22;8934;51.194;17.150;2022-10-16T04:13:42;12.20;99.90
17632;DHT22;8934;51.194;17.150;2022-10-16T04:16:32;12.20;99.90
17632;DHT22;8934;51.194;17.150;2022-10-16T04:19:19;12.20;99.90
17632;DHT22;8934;51.194;17.150;2022-10-16T04:22:07;12.20;99.90
17632;DHT22;8934;51.194;17.150;2022-10-16T04:24:55;12.20;99.90
17632;DHT22;8934;51.194;17.150;2022-10-16T04:27:46;12.10;99.90
17632;DHT22;8934;51.194;17.150;2022-10-16T04:30:33;12.10;99.90
17632;DHT22;8934;51.194;17.150;2022-10-16T04:33:23;12.00;99.90
17632;DHT22;8934;51.194;17.150;2022-10-16T04:36:11;11.90;99.90
17632;DHT22;8934;51.194;17.150;2022-10-16T04:38:59;11.90;99.90
17632;DHT22;8934;51.194;17.150;2022-10-16T04:41:47;11.80;99.90
17632;DHT22;8934;51.194;17.150;2022-10-16T04:44:35;11.80;99.90
17632;DHT22;8934;51.194;17.150;2022-10-16T04:47:23;11.80;99.90
17632;DHT22;8934;51.194;17.150;2022-10-16T04:50:12;11.80;99.90
17632;DHT22;8934;51.194;17.150;2022-10-16T04:53:18;11.80;99.90
17632;DHT22;8934;51.194;17.150;2022-10-16T04:56:06;11.80;99.90
17632;DHT22;8934;51.194;17.150;2022-10-16T04:58:54;11.80;99.90
17632;DHT22;8934;51.194;17.150;2022-10-16T05:01:42;11.80;99.90
17632;DHT22;8934;51.194;17.150;2022-10-16T05:04:29;11.80;99.90
17632;DHT22;8934;51.194;17.150;2022-10-16T05:07:18;11.80;99.90
17632;DHT22;8934;51.194;17.150;2022-10-16T05:10:07;11.80;99.90
17632;DHT22;8934;51.194;17.150;2022-10-16T05:12:55;11.90;99.90
17632;DHT22;8934;51.194;17.150;2022-10-16T05:15:47;11.90;99.90
17632;DHT22;8934;51.194;17.150;2022-10-16T05:18:35;11.80;99.90
17632;DHT22;8934;51.194;17.150;2022-10-16T05:21:23;11.80;99.90
17632;DHT22;8934;51.194;17.150;2022-10-16T05:24:12;11.90;99.90
17632;DHT22;8934;51.194;17.150;2022-10-16T05:27:00;11.90;99.90
17632;DHT22;8934;51.194;17.150;2022-10-16T05:29:48;11.80;99.90
17632;DHT22;8934;51.194;17.150;2022-10-16T05:32:36;11.80;99.90
17632;DHT22;8934;51.194;17.150;2022-10-16T05:35:24;11.80;99.90
17632;DHT22;8934;51.194;17.150;2022-10-16T05:38:12;11.80;99.90
17632;DHT22;8934;51.194;17.150;2022-10-16T05:41:01;11.80;99.90
17632;DHT22;8934;51.194;17.150;2022-10-16T05:43:49;11.80;99.90
17632;DHT22;8934;51.194;17.150;2022-10-16T05:46:36;11.80;99.90
17632;DHT22;8934;51.194;17.150;2022-10-16T05:49:24;11.90;99.90
17632;DHT22;8934;51.194;17.150;2022-10-16T05:52:12;11.90;99.90
17632;DHT22;8934;51.194;17.150;2022-10-16T05:55:00;12.00;99.90
17632;DHT22;8934;51.194;17.150;2022-10-16T05:57:49;12.10;99.90
17632;DHT22;8934;51.194;17.150;2022-10-16T06:00:37;12.10;99.90
17632;DHT22;8934;51.194;17.150;2022-10-16T06:03:25;12.20;99.90
17632;DHT22;8934;51.194;17.150;2022-10-16T06:06:13;12.20;99.90
17632;DHT22;8934;51.194;17.150;2022-10-16T06:09:00;12.30;99.90
17632;DHT22;8934;51.194;17.150;2022-10-16T06:11:48;12.30;99.90
17632;DHT22;8934;51.194;17.150;2022-10-16T06:14:37;12.40;99.90
17632;DHT22;8934;51.194;17.150;2022-10-16T06:17:24;12.40;99.90
17632;DHT22;8934;51.194;17.150;2022-10-16T06:20:12;12.50;99.90
17632;DHT22;8934;51.194;17.150;2022-10-16T06:23:00;12.50;99.90
17632;DHT22;8934;51.194;17.150;2022-10-16T06:25:48;12.60;99.90
17632;DHT22;8934;51.194;17.150;2022-10-16T06:28:35;12.70;99.90
17632;DHT22;8934;51.194;17.150;2022-10-16T06:31:25;12.70;99.90
17632;DHT22;8934;51.194;17.150;2022-10-16T06:34:15;12.80;99.90
17632;DHT22;8934;51.194;17.150;2022-10-16T06:37:03;12.80;99.90
17632;DHT22;8934;51.194;17.150;2022-10-16T06:39:51;12.90;99.90
17632;DHT22;8934;51.194;17.150;2022-10-16T06:42:40;13.00;99.90
17632;DHT22;8934;51.194;17.150;2022-10-16T06:45:27;13.10;99.90
17632;DHT22;8934;51.194;17.150;2022-10-16T06:48:17;13.10;99.90
17632;DHT22;8934;51.194;17.150;2022-10-16T06:51:05;13.30;99.90
17632;DHT22;8934;51.194;17.150;2022-10-16T06:53:53;13.40;99.90
17632;DHT22;8934;51.194;17.150;2022-10-16T06:56:51;13.50;99.90
17632;DHT22;8934;51.194;17.150;2022-10-16T06:59:41;13.60;99.90
17632;DHT22;8934;51.194;17.150;2022-10-16T07:02:32;13.70;99.90
17632;DHT22;8934;51.194;17.150;2022-10-16T07:05:21;13.80;99.90
17632;DHT22;8934;51.194;17.150;2022-10-16T07:08:09;13.80;99.90
17632;DHT22;8934;51.194;17.150;2022-10-16T07:11:01;13.80;99.90
17632;DHT22;8934;51.194;17.150;2022-10-16T07:13:50;13.90;99.90
17632;DHT22;8934;51.194;17.150;2022-10-16T07:16:41;14.00;99.90
17632;DHT22;8934;51.194;17.150;2022-10-16T07:19:29;14.00;99.90
17632;DHT22;8934;51.194;17.150;2022-10-16T07:22:21;14.10;99.90
17632;DHT22;8934;51.194;17.150;2022-10-16T07:25:09;14.20;99.90
17632;DHT22;8934;51.194;17.150;2022-10-16T07:27:57;14.30;99.90
17632;DHT22;8934;51.194;17.150;2022-10-16T07:30:45;14.40;99.90
17632;DHT22;8934;51.194;17.150;2022-10-16T07:33:32;14.50;99.90
17632;DHT22;8934;51.194;17.150;2022-10-16T07:36:20;14.70;99.90
17632;DHT22;8934;51.194;17.150;2022-10-16T07:39:09;14.80;99.90
17632;DHT22;8934;51.194;17.150;2022-10-16T07:41:57;14.90;99.90
17632;DHT22;8934;51.194;17.150;2022-10-16T07:44:45;15.00;99.90
17632;DHT22;8934;51.194;17.150;2022-10-16T07:47:32;15.00;99.90
17632;DHT22;8934;51.194;17.150;2022-10-16T07:50:19;15.00;99.90
17632;DHT22;8934;51.194;17.150;2022-10-16T07:53:07;15.10;99.90
17632;DHT22;8934;51.194;17.150;2022-10-16T07:55:58;15.30;99.90
17632;DHT22;8934;51.194;17.150;2022-10-16T07:58:46;15.40;99.90
17632;DHT22;8934;51.194;17.150;2022-10-16T08:01:35;15.60;99.90
17632;DHT22;8934;51.194;17.150;2022-10-16T08:04:23;15.60;99.90
17632;DHT22;8934;51.194;17.150;2022-10-16T08:07:11;15.60;99.90
17632;DHT22;8934;51.194;17.150;2022-10-16T08:09:59;15.70;99.90
17632;DHT22;8934;51.194;17.150;2022-10-16T08:12:48;15.80;99.90
17632;DHT22;8934;51.194;17.150;2022-10-16T08:15:36;15.90;99.90
17632;DHT22;8934;51.194;17.150;2022-10-16T08:18:23;16.00;99.90
17632;DHT22;8934;51.194;17.150;2022-10-16T08:21:12;16.10;99.90
17632;DHT22;8934;51.194;17.150;2022-10-16T08:24:06;16.20;99.90
17632;DHT22;8934;51.194;17.150;2022-10-16T08:26:54;16.40;99.90
17632;DHT22;8934;51.194;17.150;2022-10-16T08:29:43;16.50;99.90
17632;DHT22;8934;51.194;17.150;2022-10-16T08:32:30;16.50;99.90
17632;DHT22;8934;51.194;17.150;2022-10-16T08:35:18;16.60;99.90
17632;DHT22;8934;51.194;17.150;2022-10-16T08:38:06;16.60;99.90
17632;DHT22;8934;51.194;17.150;2022-10-16T08:40:54;16.60;99.90
17632;DHT22;8934;51.194;17.150;2022-10-16T08:43:56;16.70;99.90
17632;DHT22;8934;51.194;17.150;2022-10-16T08:46:50;16.80;99.90
17632;DHT22;8934;51.194;17.150;2022-10-16T08:49:47;17.00;99.90
17632;DHT22;8934;51.194;17.150;2022-10-16T08:52:38;17.20;99.90
17632;DHT22;8934;51.194;17.150;2022-10-16T08:55:30;17.50;99.90
17632;DHT22;8934;51.194;17.150;2022-10-16T08:58:19;17.90;99.90
17632;DHT22;8934;51.194;17.150;2022-10-16T09:01:11;18.30;99.90
17632;DHT22;8934;51.194;17.150;2022-10-16T09:04:14;18.50;99.90
17632;DHT22;8934;51.194;17.150;2022-10-16T09:07:08;18.80;99.90
17632;DHT22;8934;51.194;17.150;2022-10-16T09:10:00;19.00;99.90
17632;DHT22;8934;51.194;17.150;2022-10-16T09:12:54;19.10;99.90
17632;DHT22;8934;51.194;17.150;2022-10-16T09:15:48;19.20;99.90
17632;DHT22;8934;51.194;17.150;2022-10-16T09:18:39;19.20;99.90
17632;DHT22;8934;51.194;17.150;2022-10-16T09:21:30;19.10;99.90
17632;DHT22;8934;51.194;17.150;2022-10-16T09:24:19;19.00;99.90
17632;DHT22;8934;51.194;17.150;2022-10-16T09:27:12;18.90;99.90
17632;DHT22;8934;51.194;17.150;2022-10-16T09:30:01;18.90;99.90
17632;DHT22;8934;51.194;17.150;2022-10-16T09:32:50;18.80;99.90
17632;DHT22;8934;51.194;17.150;2022-10-16T09:35:39;18.80;99.90
17632;DHT22;8934;51.194;17.150;2022-10-16T09:38:31;18.70;99.90
17632;DHT22;8934;51.194;17.150;2022-10-16T09:41:19;18.60;99.90
17632;DHT22;8934;51.194;17.150;2022-10-16T09:44:14;18.60;99.90
17632;DHT22;8934;51.194;17.150;2022-10-16T09:47:03;18.60;99.90
17632;DHT22;8934;51.194;17.150;2022-10-16T09:49:51;18.60;99.90
17632;DHT22;8934;51.194;17.150;2022-10-16T09:52:39;18.60;99.90
17632;DHT22;8934;51.194;17.150;2022-10-16T09:55:27;18.70;99.90
17632;DHT22;8934;51.194;17.150;2022-10-16T09:58:14;19.10;99.90
17632;DHT22;8934;51.194;17.150;2022-10-16T10:01:02;19.50;99.90
17632;DHT22;8934;51.194;17.150;2022-10-16T10:03:50;20.00;99.90
17632;DHT22;8934;51.194;17.150;2022-10-16T10:06:41;20.60;99.90
17632;DHT22;8934;51.194;17.150;2022-10-16T10:09:30;21.00;99.90
17632;DHT22;8934;51.194;17.150;2022-10-16T10:12:23;21.50;99.90
17632;DHT22;8934;51.194;17.150;2022-10-16T10:15:13;21.90;99.90
17632;DHT22;8934;51.194;17.150;2022-10-16T10:18:16;22.10;99.90
17632;DHT22;8934;51.194;17.150;2022-10-16T10:21:12;22.20;99.90
17632;DHT22;8934;51.194;17.150;2022-10-16T10:24:00;22.20;99.90
17632;DHT22;8934;51.194;17.150;2022-10-16T10:26:53;22.30;99.90
17632;DHT22;8934;51.194;17.150;2022-10-16T10:29:47;22.20;99.90
17632;DHT22;8934;51.194;17.150;2022-10-16T10:32:40;22.20;99.90
17632;DHT22;8934;51.194;17.150;2022-10-16T10:35:30;22.10;99.90
17632;DHT22;8934;51.194;17.150;2022-10-16T10:38:24;22.30;99.90
17632;DHT22;8934;51.194;17.150;2022-10-16T10:44:19;22.90;99.90
17632;DHT22;8934;51.194;17.150;2022-10-16T10:47:16;23.10;99.90
17632;DHT22;8934;51.194;17.150;2022-10-16T10:50:08;23.00;99.90
17632;DHT22;8934;51.194;17.150;2022-10-16T10:53:00;23.10;99.90
17632;DHT22;8934;51.194;17.150;2022-10-16T10:55:51;23.30;99.90
17632;DHT22;8934;51.194;17.150;2022-10-16T10:58:51;23.50;99.90
17632;DHT22;8934;51.194;17.150;2022-10-16T11:01:45;23.50;99.90
17632;DHT22;8934;51.194;17.150;2022-10-16T11:04:45;23.60;99.90
17632;DHT22;8934;51.194;17.150;2022-10-16T11:07:36;23.80;99.90
17632;DHT22;8934;51.194;17.150;2022-10-16T11:10:26;23.90;99.90
17632;DHT22;8934;51.194;17.150;2022-10-16T11:13:17;23.90;99.90
17632;DHT22;8934;51.194;17.150;2022-10-16T11:16:10;23.70;99.90
17632;DHT22;8934;51.194;17.150;2022-10-16T11:19:05;23.60;99.90
17632;DHT22;8934;51.194;17.150;2022-10-16T11:21:59;23.70;99.90
17632;DHT22;8934;51.194;17.150;2022-10-16T11:24:48;23.60;99.90
17632;DHT22;8934;51.194;17.150;2022-10-16T11:27:40;23.60;99.90
17632;DHT22;8934;51.194;17.150;2022-10-16T11:30:30;23.90;99.90
17632;DHT22;8934;51.194;17.150;2022-10-16T11:33:22;24.20;99.90
17632;DHT22;8934;51.194;17.150;2022-10-16T11:36:11;24.40;99.90
17632;DHT22;8934;51.194;17.150;2022-10-16T11:39:02;24.60;99.90
17632;DHT22;8934;51.194;17.150;2022-10-16T11:41:51;24.70;99.90
17632;DHT22;8934;51.194;17.150;2022-10-16T11:44:45;24.80;99.90
17632;DHT22;8934;51.194;17.150;2022-10-16T11:47:39;24.90;99.90
17632;DHT22;8934;51.194;17.150;2022-10-16T11:50:46;25.00;99.90
17632;DHT22;8934;51.194;17.150;2022-10-16T11:53:39;24.70;99.90
17632;DHT22;8934;51.194;17.150;2022-10-16T11:56:31;24.40;99.90
17632;DHT22;8934;51.194;17.150;2022-10-16T11:59:21;24.10;99.90
17632;DHT22;8934;51.194;17.150;2022-10-16T12:02:18;23.90;99.90
17632;DHT22;8934;51.194;17.150;2022-10-16T12:05:14;23.70;99.90
17632;DHT22;8934;51.194;17.150;2022-10-16T12:08:07;23.60;99.90
17632;DHT22;8934;51.194;17.150;2022-10-16T12:11:06;23.40;99.90
17632;DHT22;8934;51.194;17.150;2022-10-16T12:14:04;23.30;99.90
17632;DHT22;8934;51.194;17.150;2022-10-16T12:16:53;23.00;99.90
17632;DHT22;8934;51.194;17.150;2022-10-16T12:19:41;22.90;99.90
17632;DHT22;8934;51.194;17.150;2022-10-16T12:22:29;22.80;99.90
17632;DHT22;8934;51.194;17.150;2022-10-16T12:25:19;22.70;99.90
17632;DHT22;8934;51.194;17.150;2022-10-16T12:28:17;22.70;99.90
17632;DHT22;8934;51.194;17.150;2022-10-16T12:31:08;22.60;99.90
17632;DHT22;8934;51.194;17.150;2022-10-16T12:33:59;22.50;99.90
17632;DHT22;8934;51.194;17.150;2022-10-16T12:36:47;22.40;99.90
17632;DHT22;8934;51.194;17.150;2022-10-16T12:39:34;22.20;99.90
17632;DHT22;8934;51.194;17.150;2022-10-16T12:42:30;22.10;99.90
17632;DHT22;8934;51.194;17.150;2022-10-16T12:45:27;22.10;99.90
17632;DHT22;8934;51.194;17.150;2022-10-16T12:48:20;22.10;99.90
17632;DHT22;8934;51.194;17.150;2022-10-16T12:51:21;22.00;99.90
17632;DHT22;8934;51.194;17.150;2022-10-16T12:54:11;22.10;99.90
17632;DHT22;8934;51.194;17.150;2022-10-16T13:00:07;22.20;99.90
17632;DHT22;8934;51.194;17.150;2022-10-16T13:03:02;22.40;99.90
17632;DHT22;8934;51.194;17.150;2022-10-16T13:06:02;22.50;99.90
17632;DHT22;8934;51.194;17.150;2022-10-16T13:09:02;22.50;99.90
17632;DHT22;8934;51.194;17.150;2022-10-16T13:12:01;22.40;99.90
17632;DHT22;8934;51.194;17.150;2022-10-16T13:14:59;22.40;99.90
17632;DHT22;8934;51.194;17.150;2022-10-16T13:17:50;22.20;99.90
17632;DHT22;8934;51.194;17.150;2022-10-16T13:20:43;22.20;99.90
17632;DHT22;8934;51.194;17.150;2022-10-16T13:23:38;22.20;99.90
17632;DHT22;8934;51.194;17.150;2022-10-16T13:26:32;22.10;99.90
17632;DHT22;8934;51.194;17.150;2022-10-16T13:29:21;22.10;99.90
17632;DHT22;8934;51.194;17.150;2022-10-16T13:32:09;22.10;99.90
17632;DHT22;8934;51.194;17.150;2022-10-16T13:34:59;22.10;99.90
17632;DHT22;8934;51.194;17.150;2022-10-16T13:37:47;22.20;99.90
17632;DHT22;8934;51.194;17.150;2022-10-16T13:40:36;22.20;99.90
17632;DHT22;8934;51.194;17.150;2022-10-16T13:43:26;22.30;99.90
17632;DHT22;8934;51.194;17.150;2022-10-16T13:46:14;22.20;99.90
17632;DHT22;8934;51.194;17.150;2022-10-16T13:49:03;22.20;99.90
17632;DHT22;8934;51.194;17.150;2022-10-16T13:51:54;22.10;99.90
17632;DHT22;8934;51.194;17.150;2022-10-16T13:54:42;22.30;99.90
17632;DHT22;8934;51.194;17.150;2022-10-16T13:57:30;22.70;99.90
17632;DHT22;8934;51.194;17.150;2022-10-16T14:00:19;23.20;99.90
17632;DHT22;8934;51.194;17.150;2022-10-16T14:03:11;23.50;99.90
17632;DHT22;8934;51.194;17.150;2022-10-16T14:06:00;23.80;99.90
17632;DHT22;8934;51.194;17.150;2022-10-16T14:08:48;24.20;99.90
17632;DHT22;8934;51.194;17.150;2022-10-16T14:11:38;24.30;99.90
17632;DHT22;8934;51.194;17.150;2022-10-16T14:14:34;24.20;99.90
17632;DHT22;8934;51.194;17.150;2022-10-16T14:17:23;24.40;99.90
17632;DHT22;8934;51.194;17.150;2022-10-16T14:20:12;24.50;99.90
17632;DHT22;8934;51.194;17.150;2022-10-16T14:23:02;24.40;99.90
17632;DHT22;8934;51.194;17.150;2022-10-16T14:25:51;24.10;99.90
17632;DHT22;8934;51.194;17.150;2022-10-16T14:28:38;23.80;99.90
17632;DHT22;8934;51.194;17.150;2022-10-16T14:31:29;23.40;99.90
17632;DHT22;8934;51.194;17.150;2022-10-16T14:34:27;23.00;99.90
17632;DHT22;8934;51.194;17.150;2022-10-16T14:37:20;22.60;99.90
17632;DHT22;8934;51.194;17.150;2022-10-16T14:40:13;22.50;99.90
17632;DHT22;8934;51.194;17.150;2022-10-16T14:43:02;22.50;99.90
17632;DHT22;8934;51.194;17.150;2022-10-16T14:45:50;22.40;99.90
17632;DHT22;8934;51.194;17.150;2022-10-16T14:48:41;22.20;99.90
17632;DHT22;8934;51.194;17.150;2022-10-16T14:51:29;22.10;99.90
17632;DHT22;8934;51.194;17.150;2022-10-16T14:54:17;21.90;99.90
17632;DHT22;8934;51.194;17.150;2022-10-16T14:57:05;21.70;99.90
17632;DHT22;8934;51.194;17.150;2022-10-16T14:59:53;21.60;99.90
17632;DHT22;8934;51.194;17.150;2022-10-16T15:02:40;21.50;99.90
17632;DHT22;8934;51.194;17.150;2022-10-16T15:05:30;21.30;99.90
17632;DHT22;8934;51.194;17.150;2022-10-16T15:08:18;21.20;99.90
17632;DHT22;8934;51.194;17.150;2022-10-16T15:11:05;21.10;99.90
17632;DHT22;8934;51.194;17.150;2022-10-16T15:13:56;21.00;99.90
17632;DHT22;8934;51.194;17.150;2022-10-16T15:16:44;20.90;99.90
17632;DHT22;8934;51.194;17.150;2022-10-16T15:19:32;20.80;99.90
17632;DHT22;8934;51.194;17.150;2022-10-16T15:22:21;20.60;99.90
17632;DHT22;8934;51.194;17.150;2022-10-16T15:25:10;20.40;99.90
17632;DHT22;8934;51.194;17.150;2022-10-16T15:28:05;20.20;99.90
17632;DHT22;8934;51.194;17.150;2022-10-16T15:30:54;20.10;99.90
17632;DHT22;8934;51.194;17.150;2022-10-16T15:33:41;19.90;99.90
17632;DHT22;8934;51.194;17.150;2022-10-16T15:36:30;19.70;99.90
17632;DHT22;8934;51.194;17.150;2022-10-16T15:39:21;19.40;99.90
17632;DHT22;8934;51.194;17.150;2022-10-16T15:42:08;19.20;99.90
17632;DHT22;8934;51.194;17.150;2022-10-16T15:44:56;19.00;99.90
17632;DHT22;8934;51.194;17.150;2022-10-16T15:47:44;18.80;99.90
17632;DHT22;8934;51.194;17.150;2022-10-16T15:50:32;18.60;99.90
17632;DHT22;8934;51.194;17.150;2022-10-16T15:53:20;18.40;99.90
17632;DHT22;8934;51.194;17.150;2022-10-16T15:56:10;18.20;99.90
17632;DHT22;8934;51.194;17.150;2022-10-16T15:58:58;18.00;99.90
17632;DHT22;8934;51.194;17.150;2022-10-16T16:01:46;17.90;99.90
17632;DHT22;8934;51.194;17.150;2022-10-16T16:04:34;17.70;99.90
17632;DHT22;8934;51.194;17.150;2022-10-16T16:07:32;17.60;99.90
17632;DHT22;8934;51.194;17.150;2022-10-16T16:10:20;17.40;99.90
17632;DHT22;8934;51.194;17.150;2022-10-16T16:13:09;17.20;99.90
17632;DHT22;8934;51.194;17.150;2022-10-16T16:15:57;17.10;99.90
17632;DHT22;8934;51.194;17.150;2022-10-16T16:18:45;17.00;99.90
17632;DHT22;8934;51.194;17.150;2022-10-16T16:21:35;16.90;99.90
17632;DHT22;8934;51.194;17.150;2022-10-16T16:24:23;16.90;99.90
17632;DHT22;8934;51.194;17.150;2022-10-16T16:27:10;16.70;99.90
17632;DHT22;8934;51.194;17.150;2022-10-16T16:30:01;16.70;99.90
17632;DHT22;8934;51.194;17.150;2022-10-16T16:32:50;16.70;99.90
17632;DHT22;8934;51.194;17.150;2022-10-16T16:35:39;16.70;99.90
17632;DHT22;8934;51.194;17.150;2022-10-16T16:38:27;16.60;99.90
17632;DHT22;8934;51.194;17.150;2022-10-16T16:41:17;16.60;99.90
17632;DHT22;8934;51.194;17.150;2022-10-16T16:44:07;16.60;99.90
17632;DHT22;8934;51.194;17.150;2022-10-16T16:46:57;16.60;99.90
17632;DHT22;8934;51.194;17.150;2022-10-16T16:49:45;16.60;99.90
17632;DHT22;8934;51.194;17.150;2022-10-16T16:52:33;16.60;99.90
17632;DHT22;8934;51.194;17.150;2022-10-16T16:55:21;16.60;99.90
17632;DHT22;8934;51.194;17.150;2022-10-16T16:58:09;16.60;99.90
17632;DHT22;8934;51.194;17.150;2022-10-16T17:00:57;16.60;99.90
17632;DHT22;8934;51.194;17.150;2022-10-16T17:04:07;16.60;99.90
17632;DHT22;8934;51.194;17.150;2022-10-16T17:06:55;16.50;99.90
17632;DHT22;8934;51.194;17.150;2022-10-16T17:09:43;16.50;99.90
17632;DHT22;8934;51.194;17.150;2022-10-16T17:12:31;16.40;99.90
17632;DHT22;8934;51.194;17.150;2022-10-16T17:15:19;16.30;99.90
17632;DHT22;8934;51.194;17.150;2022-10-16T17:18:07;16.20;99.90
17632;DHT22;8934;51.194;17.150;2022-10-16T17:20:59;16.20;99.90
17632;DHT22;8934;51.194;17.150;2022-10-16T17:23:47;16.10;99.90
17632;DHT22;8934;51.194;17.150;2022-10-16T17:26:38;16.00;99.90
17632;DHT22;8934;51.194;17.150;2022-10-16T17:29:28;15.90;99.90
17632;DHT22;8934;51.194;17.150;2022-10-16T17:32:17;15.90;99.90
17632;DHT22;8934;51.194;17.150;2022-10-16T17:35:06;15.80;99.90
17632;DHT22;8934;51.194;17.150;2022-10-16T17:37:56;15.80;99.90
17632;DHT22;8934;51.194;17.150;2022-10-16T17:40:44;15.70;99.90
17632;DHT22;8934;51.194;17.150;2022-10-16T17:43:32;15.60;99.90
17632;DHT22;8934;51.194;17.150;2022-10-16T17:46:22;15.50;99.90
17632;DHT22;8934;51.194;17.150;2022-10-16T17:49:12;15.40;99.90
17632;DHT22;8934;51.194;17.150;2022-10-16T17:52:00;15.30;99.90
17632;DHT22;8934;51.194;17.150;2022-10-16T17:54:50;15.20;99.90
17632;DHT22;8934;51.194;17.150;2022-10-16T17:57:38;15.10;99.90
17632;DHT22;8934;51.194;17.150;2022-10-16T18:00:27;15.10;99.90